createdAt,value
2022-10-04T00:00:01.181Z,10.60
2022-10-04T00:02:34.176Z,10.60
2022-10-04T00:05:08.353Z,10.60
2022-10-04T00:07:42.803Z,10.60
2022-10-04T00:10:20.350Z,10.60
2022-10-04T00:12:55.338Z,10.70
2022-10-04T00:15:29.387Z,10.70
2022-10-04T00:18:09.709Z,10.70
2022-10-04T00:21:00.864Z,10.70
2022-10-04T00:23:42.779Z,10.70
2022-10-04T00:26:17.757Z,10.70
2022-10-04T00:28:47.345Z,10.70
2022-10-04T00:31:18.819Z,10.70
2022-10-04T00:33:48.824Z,10.70
2022-10-04T00:36:49.863Z,10.70
2022-10-04T00:39:40.150Z,10.70
2022-10-04T00:42:32.704Z,10.70
2022-10-04T00:45:04.781Z,10.70
2022-10-04T00:47:39.427Z,10.70
2022-10-04T00:50:18.501Z,10.70
2022-10-04T00:52:52.752Z,10.60
2022-10-04T00:55:28.095Z,10.60
2022-10-04T00:58:00.709Z,10.60
2022-10-04T01:00:33.396Z,10.60
2022-10-04T01:03:06.723Z,10.60
2022-10-04T01:05:37.874Z,10.60
2022-10-04T01:08:11.592Z,10.60
2022-10-04T01:10:45.950Z,10.70
2022-10-04T01:13:21.887Z,10.60
2022-10-04T01:15:59.543Z,10.60
2022-10-04T01:18:33.382Z,10.60
2022-10-04T01:21:08.392Z,10.60
2022-10-04T01:23:41.737Z,10.60
2022-10-04T01:26:40.814Z,10.60
2022-10-04T01:29:13.025Z,10.50
2022-10-04T01:31:45.200Z,10.50
2022-10-04T01:34:19.797Z,10.50
2022-10-04T01:36:51.401Z,10.50
2022-10-04T01:39:27.290Z,10.40
2022-10-04T01:42:01.089Z,10.40
2022-10-04T01:44:35.798Z,10.50
2022-10-04T01:47:06.985Z,10.40
2022-10-04T01:49:38.841Z,10.40
2022-10-04T01:52:17.217Z,10.40
2022-10-04T01:54:51.752Z,10.40
2022-10-04T01:57:24.818Z,10.40
2022-10-04T01:59:58.566Z,10.40
2022-10-04T02:02:31.850Z,10.40
2022-10-04T02:05:01.817Z,10.40
2022-10-04T02:07:32.824Z,10.40
2022-10-04T02:10:07.488Z,10.40
2022-10-04T02:12:37.684Z,10.30
2022-10-04T02:15:09.740Z,10.30
2022-10-04T02:17:43.052Z,10.30
2022-10-04T02:20:16.068Z,10.30
2022-10-04T02:22:46.464Z,10.30
2022-10-04T02:25:19.619Z,10.30
2022-10-04T02:27:53.081Z,10.30
2022-10-04T02:30:21.226Z,10.30
2022-10-04T02:32:59.964Z,10.30
2022-10-04T02:35:34.224Z,10.30
2022-10-04T02:38:12.848Z,10.30
2022-10-04T02:40:50.852Z,10.30
2022-10-04T02:43:24.774Z,10.30
2022-10-04T02:45:56.530Z,10.30
2022-10-04T02:48:40.784Z,10.20
2022-10-04T02:51:20.547Z,10.20
2022-10-04T02:54:02.294Z,10.20
2022-10-04T02:56:33.936Z,10.20
2022-10-04T02:59:03.762Z,10.20
2022-10-04T03:01:44.931Z,10.20
2022-10-04T03:04:16.758Z,10.20
2022-10-04T03:06:46.958Z,10.20
2022-10-04T03:09:16.598Z,10.20
2022-10-04T03:11:46.963Z,10.20
2022-10-04T03:14:22.302Z,10.20
2022-10-04T03:16:54.173Z,10.20
2022-10-04T03:19:24.935Z,10.30
2022-10-04T03:21:57.785Z,10.30
2022-10-04T03:24:31.280Z,10.30
2022-10-04T03:27:07.815Z,10.30
2022-10-04T03:29:36.844Z,10.30
2022-10-04T03:32:06.865Z,10.30
2022-10-04T03:34:37.905Z,10.30
2022-10-04T03:37:10.891Z,10.30
2022-10-04T03:39:43.803Z,10.30
2022-10-04T03:42:17.863Z,10.30
2022-10-04T03:44:47.791Z,10.40
2022-10-04T03:47:22.886Z,10.30
2022-10-04T03:49:52.231Z,10.40
2022-10-04T03:52:27.230Z,10.40
2022-10-04T03:55:00.139Z,10.40
2022-10-04T03:57:30.900Z,10.40
2022-10-04T04:00:03.909Z,10.40
2022-10-04T04:02:46.443Z,10.40
2022-10-04T04:05:19.852Z,10.50
2022-10-04T04:08:07.015Z,10.50
2022-10-04T04:10:39.093Z,10.50
2022-10-04T04:13:21.150Z,10.50
2022-10-04T04:15:50.180Z,10.60
2022-10-04T04:18:21.955Z,10.60
2022-10-04T04:20:52.984Z,10.60
2022-10-04T04:23:33.003Z,10.60
2022-10-04T04:26:20.808Z,10.60
2022-10-04T04:28:53.042Z,10.60
2022-10-04T04:31:26.964Z,10.60
2022-10-04T04:33:59.404Z,10.60
2022-10-04T04:36:29.907Z,10.60
2022-10-04T04:39:26.784Z,10.60
2022-10-04T04:41:55.896Z,10.60
2022-10-04T04:44:27.185Z,10.60
2022-10-04T04:47:00.608Z,10.60
2022-10-04T04:49:31.796Z,10.60
2022-10-04T04:52:00.917Z,10.60
2022-10-04T04:54:31.401Z,10.60
2022-10-04T04:57:01.106Z,10.60
2022-10-04T04:59:31.813Z,10.60
2022-10-04T05:02:01.067Z,10.60
2022-10-04T05:04:29.824Z,10.60
2022-10-04T05:07:04.006Z,10.60
2022-10-04T05:09:34.058Z,10.60
2022-10-04T05:12:09.927Z,10.60
2022-10-04T05:14:44.965Z,10.60
2022-10-04T05:17:20.165Z,10.70
2022-10-04T05:19:48.331Z,10.70
2022-10-04T05:22:24.510Z,10.60
2022-10-04T05:24:56.387Z,10.70
2022-10-04T05:27:32.558Z,10.70
2022-10-04T05:30:08.181Z,10.70
2022-10-04T05:32:45.521Z,10.70
2022-10-04T05:35:17.830Z,10.70
2022-10-04T05:38:04.528Z,10.70
2022-10-04T05:40:44.715Z,10.80
2022-10-04T05:43:24.015Z,10.80
2022-10-04T05:48:48.493Z,10.80
2022-10-04T05:51:20.902Z,10.90
2022-10-04T05:53:50.968Z,10.90
2022-10-04T05:56:52.375Z,10.90
2022-10-04T05:59:36.128Z,11.00
2022-10-04T06:02:16.654Z,11.00
2022-10-04T06:05:04.519Z,11.00
2022-10-04T06:07:39.930Z,11.10
2022-10-04T06:10:29.000Z,11.10
2022-10-04T06:13:02.753Z,11.10
2022-10-04T06:16:04.985Z,11.10
2022-10-04T06:18:52.587Z,11.10
2022-10-04T06:21:25.906Z,11.10
2022-10-04T06:24:04.884Z,11.20
2022-10-04T06:26:40.928Z,11.20
2022-10-04T06:29:14.104Z,11.20
2022-10-04T06:32:12.878Z,11.30
2022-10-04T06:35:08.378Z,11.30
2022-10-04T06:37:56.549Z,11.30
2022-10-04T06:40:48.090Z,11.40
2022-10-04T06:43:42.133Z,11.40
2022-10-04T06:46:17.819Z,11.40
2022-10-04T06:49:17.406Z,11.50
2022-10-04T06:52:16.649Z,11.50
2022-10-04T06:55:11.397Z,11.50
2022-10-04T06:58:13.120Z,11.50
2022-10-04T07:00:45.318Z,11.50
2022-10-04T07:03:17.575Z,11.50
2022-10-04T07:05:53.652Z,11.60
2022-10-04T07:08:35.468Z,11.60
2022-10-04T07:11:13.668Z,11.60
2022-10-04T07:13:50.050Z,11.60
2022-10-04T07:16:39.914Z,11.60
2022-10-04T07:19:29.342Z,11.60
2022-10-04T07:22:05.704Z,11.70
2022-10-04T07:24:45.273Z,11.70
2022-10-04T07:27:21.926Z,11.80
2022-10-04T07:29:54.959Z,11.80
2022-10-04T07:32:29.924Z,11.90
2022-10-04T07:35:03.192Z,11.90
2022-10-04T07:37:46.379Z,12.00
2022-10-04T07:40:23.883Z,12.10
2022-10-04T07:42:59.793Z,12.20
2022-10-04T07:45:32.778Z,12.20
2022-10-04T07:48:11.268Z,12.20
2022-10-04T07:50:47.311Z,12.30
2022-10-04T07:53:17.936Z,12.20
2022-10-04T07:55:57.438Z,12.30
2022-10-04T07:58:46.035Z,12.30
2022-10-04T08:01:24.932Z,12.30
2022-10-04T08:04:14.865Z,12.30
2022-10-04T08:06:57.244Z,12.30
2022-10-04T08:09:36.266Z,12.40
2022-10-04T08:12:11.021Z,12.40
2022-10-04T08:14:57.766Z,12.40
2022-10-04T08:17:44.934Z,12.40
2022-10-04T08:20:37.050Z,12.50
2022-10-04T08:23:40.603Z,12.50
2022-10-04T08:26:29.981Z,12.50
2022-10-04T08:29:32.728Z,12.60
2022-10-04T08:32:07.172Z,12.60
2022-10-04T08:34:51.969Z,12.60
2022-10-04T08:37:34.962Z,12.70
2022-10-04T08:40:43.470Z,12.70
2022-10-04T08:43:40.955Z,12.80
2022-10-04T08:46:33.139Z,12.80
2022-10-04T08:49:32.574Z,12.90
2022-10-04T08:52:47.591Z,12.90
2022-10-04T08:55:49.197Z,12.80
2022-10-04T08:58:30.934Z,12.80
2022-10-04T09:01:16.954Z,12.90
2022-10-04T09:04:36.666Z,12.90
2022-10-04T09:07:31.370Z,13.00
2022-10-04T09:10:37.062Z,13.00
2022-10-04T09:13:23.316Z,12.90
2022-10-04T09:15:53.831Z,13.00
2022-10-04T09:18:31.518Z,13.00
2022-10-04T09:21:10.848Z,13.00
2022-10-04T09:24:22.172Z,13.10
2022-10-04T09:26:57.003Z,13.10
2022-10-04T09:29:57.877Z,13.00
2022-10-04T09:32:49.176Z,13.00
2022-10-04T09:35:43.038Z,13.10
2022-10-04T09:38:41.654Z,13.10
2022-10-04T09:41:40.200Z,13.10
2022-10-04T09:44:44.291Z,13.10
2022-10-04T09:47:31.227Z,13.10
2022-10-04T09:50:35.564Z,13.10
2022-10-04T09:53:20.139Z,13.10
2022-10-04T09:56:07.041Z,13.10
2022-10-04T09:58:58.777Z,13.10
2022-10-04T10:01:37.050Z,13.10
2022-10-04T10:04:20.953Z,13.20
2022-10-04T10:07:10.133Z,13.30
2022-10-04T10:10:03.634Z,13.30
2022-10-04T10:13:17.303Z,13.40
2022-10-04T10:16:02.123Z,13.50
2022-10-04T10:18:44.113Z,13.50
2022-10-04T10:21:22.762Z,13.50
2022-10-04T10:24:04.613Z,13.60
2022-10-04T10:27:08.981Z,13.60
2022-10-04T10:30:05.894Z,13.80
2022-10-04T10:33:01.244Z,14.00
2022-10-04T10:35:49.787Z,14.00
2022-10-04T10:38:32.193Z,14.00
2022-10-04T10:41:26.201Z,13.90
2022-10-04T10:44:07.871Z,13.90
2022-10-04T10:47:16.872Z,14.00
2022-10-04T10:50:08.321Z,14.00
2022-10-04T10:53:21.307Z,14.10
2022-10-04T10:56:30.021Z,14.20
2022-10-04T10:59:29.494Z,14.30
2022-10-04T11:02:50.103Z,14.50
2022-10-04T11:06:00.264Z,14.50
2022-10-04T11:09:02.433Z,14.50
2022-10-04T11:11:51.152Z,14.50
2022-10-04T11:14:47.634Z,14.50
2022-10-04T11:17:42.016Z,14.40
2022-10-04T11:20:42.360Z,14.40
2022-10-04T11:23:56.817Z,14.40
2022-10-04T11:26:59.453Z,14.40
2022-10-04T11:30:00.074Z,14.40
2022-10-04T11:33:09.617Z,14.40
2022-10-04T11:35:54.719Z,14.40
2022-10-04T11:38:48.799Z,14.40
2022-10-04T11:41:24.330Z,14.50
2022-10-04T11:44:32.940Z,14.60
2022-10-04T11:47:10.130Z,14.60
2022-10-04T11:50:00.945Z,14.80
2022-10-04T11:53:06.463Z,14.90
2022-10-04T11:56:12.515Z,15.10
2022-10-04T11:58:53.092Z,15.10
2022-10-04T12:01:51.109Z,15.00
2022-10-04T12:04:43.897Z,15.00
2022-10-04T12:07:36.113Z,15.00
2022-10-04T12:10:23.037Z,15.00
2022-10-04T12:13:14.295Z,14.90
2022-10-04T12:16:13.314Z,14.90
2022-10-04T12:19:07.630Z,14.90
2022-10-04T12:21:52.681Z,14.90
2022-10-04T12:24:51.239Z,14.90
2022-10-04T12:27:35.057Z,14.80
2022-10-04T12:30:21.831Z,14.70
2022-10-04T12:33:22.215Z,14.70
2022-10-04T12:36:02.976Z,14.60
2022-10-04T12:38:56.824Z,14.60
2022-10-04T12:41:47.055Z,14.60
2022-10-04T12:44:27.718Z,14.50
2022-10-04T12:47:12.036Z,14.60
2022-10-04T12:49:48.611Z,14.60
2022-10-04T12:52:21.099Z,14.60
2022-10-04T12:54:56.123Z,14.60
2022-10-04T12:57:48.403Z,14.50
2022-10-04T13:00:25.037Z,14.50
2022-10-04T13:03:19.115Z,14.50
2022-10-04T13:06:03.094Z,14.50
2022-10-04T13:08:43.671Z,14.70
2022-10-04T13:11:43.163Z,14.90
2022-10-04T13:14:30.986Z,15.10
2022-10-04T13:17:34.710Z,15.20
2022-10-04T13:20:21.619Z,15.20
2022-10-04T13:22:58.070Z,15.20
2022-10-04T13:26:03.336Z,15.20
2022-10-04T13:28:41.166Z,15.20
2022-10-04T13:31:16.151Z,15.10
2022-10-04T13:33:53.299Z,15.00
2022-10-04T13:36:31.157Z,14.90
2022-10-04T13:39:19.563Z,14.90
2022-10-04T13:42:12.806Z,14.90
2022-10-04T13:45:01.140Z,14.90
2022-10-04T13:47:45.103Z,15.00
2022-10-04T13:50:45.011Z,15.10
2022-10-04T13:54:04.981Z,15.10
2022-10-04T13:57:06.099Z,15.10
2022-10-04T13:59:43.119Z,15.10
2022-10-04T14:02:47.122Z,15.20
2022-10-04T14:05:59.218Z,15.20
2022-10-04T14:08:58.135Z,15.20
2022-10-04T14:11:45.328Z,15.20
2022-10-04T14:14:54.257Z,15.20
2022-10-04T14:18:01.229Z,15.20
2022-10-04T14:21:03.188Z,15.20
2022-10-04T14:24:05.943Z,15.20
2022-10-04T14:27:22.392Z,15.10
2022-10-04T14:30:08.233Z,15.00
2022-10-04T14:33:10.189Z,15.00
2022-10-04T14:35:48.691Z,15.00
2022-10-04T14:38:52.639Z,15.00
2022-10-04T14:42:01.159Z,15.10
2022-10-04T14:45:00.063Z,15.00
2022-10-04T14:48:02.811Z,14.90
2022-10-04T14:50:43.284Z,14.90
2022-10-04T14:53:24.675Z,14.80
2022-10-04T14:56:14.192Z,14.80
2022-10-04T14:59:01.154Z,14.70
2022-10-04T15:01:31.822Z,14.60
2022-10-04T15:04:28.466Z,14.60
2022-10-04T15:07:00.162Z,14.50
2022-10-04T15:09:48.522Z,14.40
2022-10-04T15:15:59.927Z,14.40
2022-10-04T15:18:37.835Z,14.40
2022-10-04T15:21:16.287Z,14.30
2022-10-04T15:23:53.221Z,14.30
2022-10-04T15:26:54.156Z,14.20
2022-10-04T15:29:29.088Z,14.20
2022-10-04T15:32:07.420Z,14.20
2022-10-04T15:34:46.397Z,14.20
2022-10-04T15:37:27.832Z,14.20
2022-10-04T15:40:20.420Z,14.10
2022-10-04T15:43:16.400Z,14.10
2022-10-04T15:46:27.463Z,14.10
2022-10-04T15:49:14.062Z,14.00
2022-10-04T15:52:07.702Z,14.00
2022-10-04T15:55:07.881Z,13.90
2022-10-04T15:57:55.361Z,13.80
2022-10-04T16:00:27.697Z,13.70
2022-10-04T16:03:21.973Z,13.70
2022-10-04T16:06:02.892Z,13.70
2022-10-04T16:08:57.404Z,13.60
2022-10-04T16:11:38.468Z,13.60
2022-10-04T16:14:37.349Z,13.50
2022-10-04T16:17:38.008Z,13.60
2022-10-04T16:20:34.292Z,13.50
2022-10-04T16:23:31.479Z,13.50
2022-10-04T16:26:04.938Z,13.40
2022-10-04T16:29:00.842Z,13.40
2022-10-04T16:32:05.244Z,13.40
2022-10-04T16:34:48.132Z,13.30
2022-10-04T16:37:33.234Z,13.30
2022-10-04T16:40:06.144Z,13.20
2022-10-04T16:42:49.827Z,13.20
2022-10-04T16:45:44.907Z,13.10
2022-10-04T16:48:34.114Z,13.00
2022-10-04T16:51:35.639Z,13.00
2022-10-04T16:54:18.400Z,13.00
2022-10-04T16:57:24.115Z,12.90
2022-10-04T16:59:54.810Z,12.90
2022-10-04T17:02:55.514Z,12.90
2022-10-04T17:05:48.403Z,12.80
2022-10-04T17:08:44.002Z,12.80
2022-10-04T17:11:44.547Z,12.70
2022-10-04T17:14:49.444Z,12.70
2022-10-04T17:17:25.223Z,12.70
2022-10-04T17:19:57.452Z,12.60
2022-10-04T17:22:34.990Z,12.60
2022-10-04T17:25:16.130Z,12.60
2022-10-04T17:27:48.475Z,12.60
2022-10-04T17:30:21.857Z,12.50
2022-10-04T17:33:16.259Z,12.50
2022-10-04T17:36:14.197Z,12.50
2022-10-04T17:38:52.541Z,12.40
2022-10-04T17:41:28.773Z,12.40
2022-10-04T17:44:21.976Z,12.30
2022-10-04T17:46:57.614Z,12.30
2022-10-04T17:50:02.246Z,12.20
2022-10-04T17:52:53.799Z,12.20
2022-10-04T17:55:31.353Z,12.20
2022-10-04T17:58:06.342Z,12.20
2022-10-04T18:00:53.358Z,12.10
2022-10-04T18:03:26.985Z,12.10
2022-10-04T18:05:58.933Z,12.10
2022-10-04T18:08:44.551Z,12.10
2022-10-04T18:11:24.461Z,12.10
2022-10-04T18:14:00.749Z,12.00
2022-10-04T18:16:32.104Z,12.00
2022-10-04T18:19:37.625Z,12.00
2022-10-04T18:22:15.102Z,12.00
2022-10-04T18:24:46.742Z,11.90
2022-10-04T18:27:24.804Z,11.90
2022-10-04T18:30:13.463Z,11.90
2022-10-04T18:32:49.408Z,11.90
2022-10-04T18:35:28.730Z,11.80
2022-10-04T18:38:17.579Z,11.80
2022-10-04T18:40:57.637Z,11.80
2022-10-04T18:43:31.684Z,11.80
2022-10-04T18:46:09.652Z,11.70
2022-10-04T18:49:18.160Z,11.70
2022-10-04T18:52:01.792Z,11.70
2022-10-04T18:54:49.198Z,11.60
2022-10-04T18:57:39.593Z,11.60
2022-10-04T19:00:32.175Z,11.50
2022-10-04T19:03:10.321Z,11.50
2022-10-04T19:05:53.030Z,11.40
2022-10-04T19:08:42.069Z,11.40
2022-10-04T19:11:27.278Z,11.40
2022-10-04T19:14:08.593Z,11.30
2022-10-04T19:16:45.625Z,11.30
2022-10-04T19:19:43.462Z,11.20
2022-10-04T19:22:32.975Z,11.20
2022-10-04T19:25:31.695Z,11.20
2022-10-04T19:28:06.068Z,11.20
2022-10-04T19:30:51.324Z,11.10
2022-10-04T19:33:26.536Z,11.10
2022-10-04T19:36:17.359Z,11.10
2022-10-04T19:38:57.012Z,11.10
2022-10-04T19:41:41.414Z,11.10
2022-10-04T19:44:21.368Z,11.00
2022-10-04T19:47:00.740Z,11.00
2022-10-04T19:49:42.547Z,11.00
2022-10-04T19:52:24.483Z,11.00
2022-10-04T19:55:03.405Z,11.00
2022-10-04T19:57:38.918Z,11.00
2022-10-04T20:00:15.908Z,11.00
2022-10-04T20:02:48.664Z,11.00
2022-10-04T20:05:25.065Z,11.10
2022-10-04T20:08:21.926Z,11.10
2022-10-04T20:10:51.395Z,11.00
2022-10-04T20:13:25.204Z,11.10
2022-10-04T20:15:56.246Z,11.00
2022-10-04T20:19:00.633Z,10.90
2022-10-04T20:21:34.052Z,10.90
2022-10-04T20:24:02.811Z,10.90
2022-10-04T20:26:56.845Z,10.80
2022-10-04T20:30:05.397Z,10.80
2022-10-04T20:32:56.813Z,10.80
2022-10-04T20:36:09.608Z,10.80
2022-10-04T20:38:52.400Z,10.80
2022-10-04T20:42:04.215Z,10.80
2022-10-04T20:45:00.879Z,10.70
2022-10-04T20:47:43.708Z,10.80
2022-10-04T20:50:32.775Z,10.70
2022-10-04T20:53:04.635Z,10.70
2022-10-04T20:55:34.953Z,10.70
2022-10-04T20:58:30.401Z,10.70
2022-10-04T21:01:16.692Z,10.70
2022-10-04T21:03:45.226Z,10.70
2022-10-04T21:06:16.807Z,10.60
2022-10-04T21:08:45.414Z,10.60
2022-10-04T21:11:22.684Z,10.60
2022-10-04T21:14:02.475Z,10.60
2022-10-04T21:16:58.610Z,10.60
2022-10-04T21:19:54.533Z,10.60
2022-10-04T21:22:40.799Z,10.50
2022-10-04T21:25:33.221Z,10.50
2022-10-04T21:28:31.230Z,10.50
2022-10-04T21:31:01.506Z,10.50
2022-10-04T21:33:29.683Z,10.50
2022-10-04T21:36:01.570Z,10.50
2022-10-04T21:38:31.085Z,10.40
2022-10-04T21:41:00.513Z,10.40
2022-10-04T21:43:28.727Z,10.40
2022-10-04T21:45:57.503Z,10.50
2022-10-04T21:48:28.787Z,10.40
2022-10-04T21:50:58.458Z,10.40
2022-10-04T21:53:26.698Z,10.40
2022-10-04T21:55:56.454Z,10.40
2022-10-04T21:58:24.628Z,10.40
2022-10-04T22:00:56.821Z,10.40
2022-10-04T22:03:25.194Z,10.30
2022-10-04T22:05:54.433Z,10.30
2022-10-04T22:08:22.630Z,10.20
2022-10-04T22:10:55.415Z,10.20
2022-10-04T22:13:27.294Z,10.20
2022-10-04T22:15:56.343Z,10.20
2022-10-04T22:18:25.393Z,10.20
2022-10-04T22:20:54.442Z,10.10
2022-10-04T22:23:25.383Z,10.20
2022-10-04T22:25:55.266Z,10.20
2022-10-04T22:28:28.459Z,10.20
2022-10-04T22:30:59.573Z,10.20
2022-10-04T22:33:34.931Z,10.20
2022-10-04T22:36:14.895Z,10.20
2022-10-04T22:38:46.395Z,10.20
2022-10-04T22:41:19.767Z,10.20
2022-10-04T22:43:51.501Z,10.10
2022-10-04T22:46:23.388Z,10.10
2022-10-04T22:48:55.322Z,10.10
2022-10-04T22:51:23.521Z,10.10
2022-10-04T22:53:52.397Z,10.10
2022-10-04T22:56:20.684Z,10.10
2022-10-04T22:58:52.491Z,10.10
2022-10-04T23:01:23.296Z,10.10
2022-10-04T23:04:00.320Z,10.10
2022-10-04T23:06:32.483Z,10.20
2022-10-04T23:09:01.450Z,10.20
2022-10-04T23:11:32.432Z,10.20
2022-10-04T23:14:02.275Z,10.20
2022-10-04T23:16:30.915Z,10.20
2022-10-04T23:19:02.667Z,10.20
2022-10-04T23:21:35.001Z,10.20
2022-10-04T23:24:15.704Z,10.20
2022-10-04T23:26:48.513Z,10.20
2022-10-04T23:29:22.914Z,10.20
2022-10-04T23:31:52.857Z,10.30
2022-10-04T23:34:27.248Z,10.30
2022-10-04T23:36:59.181Z,10.30
2022-10-04T23:39:32.601Z,10.30
2022-10-04T23:42:00.913Z,10.30
2022-10-04T23:44:40.015Z,10.30
2022-10-04T23:47:15.323Z,10.30
2022-10-04T23:49:47.952Z,10.30
2022-10-04T23:52:23.358Z,10.40
2022-10-04T23:54:56.066Z,10.40
2022-10-04T23:57:27.299Z,10.40
